Detall de PIREP

Printer-friendly versionPDF version

[2015/04/27 09:02:00]
Flight IATA:CT1005
Pilot Number:011
Company ICAO:CAT
Aircraft Type:B738/F
PAX:160
Departing Airport: EINN
Destination Airport: LIPZ
Alternate Airport:LIMC
Online: VATSIM
Route:ABAGU DCT SLANY UL9 KONAN UL607 UTABA UM738 ADOSA L615 VIC
Flight Level:F390
No Slew and time accel
No pause
Crash detect
Detect pilot in Cockpit between each 30 and 45 minutes
09:02 Zero fuel Weight: 135490 Lbs, Fuel Weight: 23020 Lbs
09:02 VATSIM:EINN 270830Z 24010KT 9999 -SHRA FEW012 SCT018CB BKN025 05/03 Q1013 NOSIG
09:02 VATSIM:LIPZ 270850Z 12010KT 090V150 8000 -RA FEW007 SCT020 BKN060 16/14 Q1008
09:05 Parking Brakes off
09:18 Take-off
09:18 Take off Weight: 157573 Lbs
09:18 Wind: 249º @ 010 Knots Heading: 232º
09:18 POS N52º 42´ 02´´ W008º 55´ 40´´
09:18 Gear Up: 178 Knots
09:18 Flaps:5 at 178 Knots
09:19 Flaps:4 at 237 Knots
09:20 Flaps:3 at 232 Knots
09:20 Flaps:2 at 232 Knots
09:20 Flaps:0 at 233 Knots
09:33 Wind:294º@023 Knots Heading: 107º Ground Speed: 405 Knots Altitude 31742 ft
09:38 TOC
09:38 Fuel Weight: 18269 Lb
09:48 Wind:227º@016 Knots Heading: 102º Ground Speed: 456 Knots Altitude 38996 ft
10:03 Wind:006º@009 Knots Heading: 098º Ground Speed: 450 Knots Altitude 38969 ft
10:18 Wind:034º@036 Knots Heading: 093º Ground Speed: 435 Knots Altitude 38946 ft
10:33 Wind:029º@054 Knots Heading: 100º Ground Speed: 440 Knots Altitude 38864 ft
10:48 Wind:019º@036 Knots Heading: 098º Ground Speed: 448 Knots Altitude 38750 ft
11:03 Wind:331º@024 Knots Heading: 153º Ground Speed: 488 Knots Altitude 38687 ft
11:18 Wind:120º@007 Knots Heading: 148º Ground Speed: 466 Knots Altitude 38720 ft
11:21 TOD
11:21 Fuel Weight: 10451 Lb
11:33 Wind:101º@017 Knots Heading: 091º Ground Speed: 352 Knots Altitude 13881 ft
11:42 Flaps:1at 231 Knots
11:42 Flaps:2 at 230 Knots
11:42 Flaps:3 at 229 Knots
11:44 Flaps:4 at 218 Knots
11:44 Flaps:5 at 202 Knots
11:46 Flaps:6 at 177 Knots
11:46 Gear Down: 176 Knots
11:46 Flaps:7 at 160 Knots
11:48 Wind:137º@011 Knots Heading: 044º Ground Speed: 152 Knots Altitude 1820 ft
11:48 Flaps:8 at 147 Knots
11:50 TouchDown:Rate -244 ft/min Speed: 114 Knots
11:50 VATSIM:LIPZ 271120Z 14013KT 8000 -RA VCSH SCT010 BKN060 16/14 Q1007
11:50 Land
11:50 Wind:138º@011 Knots
11:50 Heading: 041º
11:50 Flight Duration: 02:32
11:50 Landing Weight: 144397 Lbs
11:50 POS N45º 30´ 06´´ E012º 20´ 51´´
11:53 Parking brakes on
11:53 Block to Block Duration: 02:48
11:53 Final Fuel: 8694 Lbls
11:53 Spent Fuel: 14325 Lbls
11:53 Flight Length: 935 NM
11:53 TOD Land Length: 149 NM

Exportar CSV

Powered by Drupal - Modified by Danger4k